SWR21M LSZH-EGLL
Flight info
| Callsign | SWR21M |
|---|---|
| Flight time | 1h 21m |
| Altitude | 38000 |
| Route | LSZH/28 VEBI4W VEBIT T10 TORPA DCT REKLA DCT RLP DCT ROTSI DCT KOTUN DCT NINAL DCT ABNUR DCT DIMAL DCT ALESO ALES1H EGLL/09L |
| Aircraft | A320/M-VGDW/C |
Departure
| Time | 2026-05-06 17:54 |
|---|---|
| Airport | Zürich Airport (LSZH) |
Arrival
| Time | 2026-05-06 19:15 |
|---|---|
| Airport | London Heathrow Airport (EGLL) |
| Time | Latitude | Longitude | Altitude | Speed | Heading |
|---|---|---|---|---|---|
| 2026-05-06 17:37 | 47.45413 | 8.55871 | 1397 ft | 0 kts | 186° |
| 2026-05-06 17:46 | 47.45421 | 8.55872 | 1406 ft | 2 kts | 185° |
| 2026-05-06 17:46 | 47.45435 | 8.55874 | 1400 ft | 2 kts | 186° |
| 2026-05-06 17:46 | 47.45452 | 8.55877 | 1406 ft | 2 kts | 187° |
| 2026-05-06 17:46 | 47.45468 | 8.55880 | 1404 ft | 2 kts | 187° |
| 2026-05-06 17:47 | 47.45484 | 8.55878 | 1401 ft | 2 kts | 146° |
| 2026-05-06 17:47 | 47.45496 | 8.55861 | 1407 ft | 2 kts | 123° |
| 2026-05-06 17:47 | 47.45503 | 8.55839 | 1404 ft | 2 kts | 94° |
| 2026-05-06 17:47 | 47.45504 | 8.55815 | 1406 ft | 2 kts | 96° |
| 2026-05-06 17:48 | 47.45505 | 8.55810 | 1405 ft | 0 kts | 96° |
| 2026-05-06 17:49 | 47.45503 | 8.55827 | 1404 ft | 7 kts | 96° |
| 2026-05-06 17:50 | 47.45493 | 8.55965 | 1401 ft | 18 kts | 96° |
| 2026-05-06 17:50 | 47.45481 | 8.56116 | 1396 ft | 16 kts | 96° |
| 2026-05-06 17:50 | 47.45506 | 8.56267 | 1401 ft | 9 kts | 51° |
| 2026-05-06 17:50 | 47.45528 | 8.56308 | 1399 ft | 10 kts | 50° |
| 2026-05-06 17:51 | 47.45595 | 8.56471 | 1399 ft | 23 kts | 88° |
| 2026-05-06 17:51 | 47.45575 | 8.56737 | 1400 ft | 28 kts | 96° |
| 2026-05-06 17:51 | 47.45561 | 8.56935 | 1397 ft | 16 kts | 96° |
| 2026-05-06 17:51 | 47.45618 | 8.57023 | 1399 ft | 10 kts | 11° |
| 2026-05-06 17:52 | 47.45631 | 8.57023 | 1397 ft | 6 kts | 355° |
| 2026-05-06 17:52 | 47.45667 | 8.56946 | 1403 ft | 0 kts | 275° |
| 2026-05-06 17:53 | 47.45670 | 8.56914 | 1398 ft | 16 kts | 275° |
| 2026-05-06 17:53 | 47.45707 | 8.56308 | 1401 ft | 99 kts | 276° |
| 2026-05-06 17:53 | 47.45813 | 8.55011 | 1479 ft | 149 kts | 276° |
| 2026-05-06 17:54 | 47.45953 | 8.53506 | 2267 ft | 148 kts | 274° |
| 2026-05-06 17:54 | 47.46029 | 8.52003 | 3186 ft | 143 kts | 272° |
| 2026-05-06 17:54 | 47.46119 | 8.50477 | 3766 ft | 157 kts | 274° |
| 2026-05-06 17:54 | 47.46237 | 8.48771 | 4344 ft | 176 kts | 274° |
| 2026-05-06 17:55 | 47.46056 | 8.46914 | 4965 ft | 198 kts | 240° |
| 2026-05-06 17:55 | 47.44987 | 8.45458 | 5766 ft | 225 kts | 216° |
| 2026-05-06 17:55 | 47.43658 | 8.44060 | 6696 ft | 243 kts | 224° |
| 2026-05-06 17:55 | 47.42476 | 8.42200 | 7844 ft | 252 kts | 232° |
| 2026-05-06 17:56 | 47.41413 | 8.40103 | 9126 ft | 258 kts | 235° |
| 2026-05-06 17:56 | 47.40396 | 8.37889 | 10340 ft | 266 kts | 236° |
| 2026-05-06 17:56 | 47.39327 | 8.35506 | 11058 ft | 291 kts | 236° |
| 2026-05-06 17:56 | 47.38189 | 8.32882 | 11666 ft | 315 kts | 239° |
| 2026-05-06 17:57 | 47.37150 | 8.29972 | 12664 ft | 324 kts | 243° |
| 2026-05-06 17:57 | 47.36159 | 8.27003 | 13733 ft | 331 kts | 243° |
| 2026-05-06 17:57 | 47.35124 | 8.23929 | 14728 ft | 337 kts | 242° |
| 2026-05-06 17:57 | 47.34050 | 8.20816 | 15687 ft | 343 kts | 242° |
| 2026-05-06 17:58 | 47.32940 | 8.17656 | 16622 ft | 351 kts | 242° |
| 2026-05-06 17:58 | 47.31799 | 8.14443 | 17554 ft | 358 kts | 241° |
| 2026-05-06 17:58 | 47.30635 | 8.11172 | 18443 ft | 364 kts | 241° |
| 2026-05-06 17:58 | 47.29453 | 8.07852 | 19307 ft | 368 kts | 241° |
| 2026-05-06 17:59 | 47.28267 | 8.04476 | 20143 ft | 374 kts | 244° |
| 2026-05-06 17:59 | 47.27448 | 8.00815 | 20978 ft | 382 kts | 257° |
| 2026-05-06 17:59 | 47.27243 | 7.96882 | 21793 ft | 391 kts | 270° |
| 2026-05-06 17:59 | 47.27583 | 7.92873 | 22590 ft | 398 kts | 276° |
| 2026-05-06 18:00 | 47.27992 | 7.88797 | 23367 ft | 404 kts | 276° |
| 2026-05-06 18:00 | 47.28398 | 7.84675 | 24075 ft | 408 kts | 275° |
| 2026-05-06 18:00 | 47.28800 | 7.80528 | 24812 ft | 411 kts | 275° |
| 2026-05-06 18:00 | 47.29201 | 7.76335 | 25500 ft | 414 kts | 275° |
| 2026-05-06 18:01 | 47.29600 | 7.72111 | 26173 ft | 418 kts | 275° |
| 2026-05-06 18:01 | 47.30001 | 7.67846 | 26838 ft | 422 kts | 274° |
| 2026-05-06 18:01 | 47.30453 | 7.63565 | 27449 ft | 427 kts | 278° |
| 2026-05-06 18:01 | 47.31237 | 7.59301 | 28026 ft | 434 kts | 285° |
| 2026-05-06 18:02 | 47.32178 | 7.55050 | 28619 ft | 438 kts | 285° |
| 2026-05-06 18:02 | 47.33106 | 7.50809 | 29138 ft | 442 kts | 285° |
| 2026-05-06 18:02 | 47.34059 | 7.46423 | 29669 ft | 445 kts | 285° |
| 2026-05-06 18:02 | 47.34994 | 7.42101 | 30143 ft | 449 kts | 285° |
| 2026-05-06 18:03 | 47.35947 | 7.37689 | 30628 ft | 452 kts | 285° |
| 2026-05-06 18:03 | 47.36916 | 7.33194 | 31130 ft | 454 kts | 285° |
| 2026-05-06 18:03 | 47.37859 | 7.28819 | 31711 ft | 454 kts | 284° |
| 2026-05-06 18:03 | 47.38812 | 7.24385 | 32372 ft | 452 kts | 284° |
| 2026-05-06 18:04 | 47.39760 | 7.19969 | 33008 ft | 451 kts | 284° |
| 2026-05-06 18:04 | 47.40681 | 7.15564 | 33599 ft | 448 kts | 281° |
| 2026-05-06 18:04 | 47.41371 | 7.11103 | 34161 ft | 445 kts | 278° |
| 2026-05-06 18:04 | 47.42020 | 7.06634 | 34623 ft | 445 kts | 279° |
| 2026-05-06 18:05 | 47.43341 | 6.97658 | 34255 ft | 445 kts | 279° |
| 2026-05-06 18:05 | 47.43994 | 6.93215 | 33874 ft | 441 kts | 279° |
| 2026-05-06 18:05 | 47.44641 | 6.88782 | 33562 ft | 442 kts | 279° |
| 2026-05-06 18:06 | 47.45938 | 6.79819 | 33714 ft | 447 kts | 279° |
| 2026-05-06 18:06 | 47.46589 | 6.75310 | 33942 ft | 450 kts | 279° |
| 2026-05-06 18:06 | 47.47243 | 6.70772 | 34345 ft | 452 kts | 279° |
| 2026-05-06 18:07 | 47.47875 | 6.66204 | 34683 ft | 453 kts | 276° |
| 2026-05-06 18:07 | 47.48260 | 6.61577 | 34998 ft | 455 kts | 273° |
| 2026-05-06 18:07 | 47.48587 | 6.56916 | 35269 ft | 457 kts | 273° |
| 2026-05-06 18:07 | 47.48810 | 6.53818 | 35453 ft | 459 kts | 273° |
| 2026-05-06 18:08 | 47.49150 | 6.49104 | 35700 ft | 461 kts | 273° |
| 2026-05-06 18:08 | 47.49490 | 6.44383 | 35910 ft | 463 kts | 274° |
| 2026-05-06 18:08 | 47.49828 | 6.39640 | 36113 ft | 464 kts | 274° |
| 2026-05-06 18:08 | 47.50163 | 6.34900 | 36369 ft | 464 kts | 274° |
| 2026-05-06 18:09 | 47.50497 | 6.30143 | 36625 ft | 464 kts | 274° |
| 2026-05-06 18:09 | 47.50828 | 6.25387 | 36897 ft | 463 kts | 274° |
| 2026-05-06 18:09 | 47.51154 | 6.20693 | 37555 ft | 451 kts | 274° |
| 2026-05-06 18:09 | 47.51465 | 6.16198 | 37834 ft | 440 kts | 273° |
| 2026-05-06 18:10 | 47.52076 | 6.07232 | 37899 ft | 439 kts | 273° |
| 2026-05-06 18:10 | 47.52680 | 5.98233 | 37900 ft | 439 kts | 273° |
| 2026-05-06 18:11 | 47.53423 | 5.89266 | 37900 ft | 441 kts | 282° |
| 2026-05-06 18:11 | 47.54461 | 5.84977 | 37900 ft | 446 kts | 294° |
| 2026-05-06 18:11 | 47.56100 | 5.81066 | 37903 ft | 450 kts | 306° |
| 2026-05-06 18:12 | 47.60326 | 5.74182 | 37902 ft | 452 kts | 310° |
| 2026-05-06 18:12 | 47.64582 | 5.67334 | 37900 ft | 451 kts | 310° |
| 2026-05-06 18:13 | 47.68658 | 5.60745 | 37906 ft | 451 kts | 310° |
| 2026-05-06 18:13 | 47.72873 | 5.53911 | 37884 ft | 451 kts | 310° |
| 2026-05-06 18:14 | 47.77106 | 5.47030 | 37898 ft | 451 kts | 310° |
| 2026-05-06 18:14 | 47.81339 | 5.40133 | 37915 ft | 451 kts | 310° |
| 2026-05-06 18:15 | 47.85568 | 5.33224 | 37901 ft | 451 kts | 310° |
| 2026-05-06 18:15 | 47.89785 | 5.26316 | 37915 ft | 451 kts | 310° |
| 2026-05-06 18:16 | 47.94007 | 5.19382 | 37918 ft | 451 kts | 310° |
| 2026-05-06 18:16 | 47.98227 | 5.12433 | 37909 ft | 452 kts | 310° |
| 2026-05-06 18:17 | 48.02438 | 5.05479 | 37911 ft | 451 kts | 310° |
| 2026-05-06 18:17 | 48.06645 | 4.98515 | 37909 ft | 451 kts | 310° |
| 2026-05-06 18:18 | 48.10845 | 4.91545 | 37913 ft | 451 kts | 310° |
| 2026-05-06 18:18 | 48.15018 | 4.84599 | 37918 ft | 451 kts | 310° |
| 2026-05-06 18:19 | 48.19235 | 4.77563 | 37916 ft | 451 kts | 310° |
| 2026-05-06 18:19 | 48.23422 | 4.70558 | 37908 ft | 451 kts | 310° |
| 2026-05-06 18:20 | 48.27605 | 4.63541 | 37909 ft | 451 kts | 310° |
| 2026-05-06 18:20 | 48.31789 | 4.56503 | 37921 ft | 451 kts | 310° |
| 2026-05-06 18:21 | 48.35957 | 4.49474 | 37915 ft | 451 kts | 310° |
| 2026-05-06 18:21 | 48.40100 | 4.42468 | 37918 ft | 451 kts | 310° |
| 2026-05-06 18:22 | 48.44269 | 4.35400 | 37910 ft | 451 kts | 310° |
| 2026-05-06 18:22 | 48.48435 | 4.28316 | 37916 ft | 451 kts | 310° |
| 2026-05-06 18:23 | 48.52594 | 4.21227 | 37915 ft | 450 kts | 310° |
| 2026-05-06 18:23 | 48.56716 | 4.14182 | 37915 ft | 450 kts | 310° |
| 2026-05-06 18:24 | 48.60854 | 4.07090 | 37912 ft | 450 kts | 310° |
| 2026-05-06 18:24 | 48.64995 | 3.99975 | 37912 ft | 450 kts | 310° |
| 2026-05-06 18:25 | 48.69129 | 3.92851 | 37914 ft | 449 kts | 310° |
| 2026-05-06 18:25 | 48.73284 | 3.85848 | 37918 ft | 450 kts | 314° |
| 2026-05-06 18:26 | 48.77770 | 3.79210 | 37916 ft | 450 kts | 314° |
| 2026-05-06 18:26 | 48.82244 | 3.72556 | 37921 ft | 450 kts | 314° |
| 2026-05-06 18:27 | 48.86678 | 3.65938 | 37925 ft | 449 kts | 314° |
| 2026-05-06 18:27 | 48.91128 | 3.59277 | 37921 ft | 449 kts | 314° |
| 2026-05-06 18:28 | 48.95595 | 3.52573 | 37919 ft | 449 kts | 314° |
| 2026-05-06 18:28 | 49.00020 | 3.45914 | 37923 ft | 449 kts | 314° |
| 2026-05-06 18:29 | 49.04475 | 3.39192 | 37921 ft | 448 kts | 314° |
| 2026-05-06 18:29 | 49.08883 | 3.32524 | 37925 ft | 448 kts | 314° |
| 2026-05-06 18:30 | 49.13318 | 3.25797 | 37921 ft | 448 kts | 314° |
| 2026-05-06 18:30 | 49.17734 | 3.19081 | 37922 ft | 448 kts | 314° |
| 2026-05-06 18:31 | 49.22118 | 3.12396 | 37924 ft | 448 kts | 314° |
| 2026-05-06 18:31 | 49.26542 | 3.05631 | 37925 ft | 448 kts | 314° |
| 2026-05-06 18:32 | 49.30941 | 2.98888 | 37925 ft | 448 kts | 314° |
| 2026-05-06 18:32 | 49.35340 | 2.92126 | 37927 ft | 447 kts | 314° |
| 2026-05-06 18:33 | 49.39707 | 2.85395 | 37926 ft | 447 kts | 314° |
| 2026-05-06 18:33 | 49.44093 | 2.78617 | 37928 ft | 446 kts | 314° |
| 2026-05-06 18:34 | 49.48474 | 2.71828 | 37927 ft | 446 kts | 313° |
| 2026-05-06 18:34 | 49.52816 | 2.65081 | 37931 ft | 446 kts | 313° |
| 2026-05-06 18:35 | 49.57181 | 2.58280 | 37931 ft | 445 kts | 313° |
| 2026-05-06 18:35 | 49.61655 | 2.51713 | 37935 ft | 446 kts | 321° |
| 2026-05-06 18:36 | 49.66610 | 2.45938 | 37937 ft | 446 kts | 321° |
| 2026-05-06 18:36 | 49.71540 | 2.40151 | 37939 ft | 446 kts | 321° |
| 2026-05-06 18:37 | 49.75643 | 2.35320 | 37936 ft | 446 kts | 321° |
| 2026-05-06 18:37 | 49.81415 | 2.28507 | 37942 ft | 446 kts | 321° |
| 2026-05-06 18:38 | 49.86356 | 2.22659 | 37940 ft | 446 kts | 321° |
| 2026-05-06 18:38 | 49.91263 | 2.16836 | 37942 ft | 446 kts | 321° |
| 2026-05-06 18:39 | 49.96186 | 2.10979 | 37947 ft | 445 kts | 321° |
| 2026-05-06 18:40 | 50.03565 | 2.02171 | 37950 ft | 445 kts | 321° |
| 2026-05-06 18:40 | 50.08460 | 1.96309 | 37957 ft | 445 kts | 321° |
| 2026-05-06 18:41 | 50.13372 | 1.90410 | 37957 ft | 445 kts | 321° |
| 2026-05-06 18:41 | 50.18144 | 1.84361 | 37956 ft | 443 kts | 315° |
| 2026-05-06 18:42 | 50.22558 | 1.77608 | 37961 ft | 443 kts | 315° |
| 2026-05-06 18:42 | 50.26967 | 1.70909 | 37966 ft | 443 kts | 315° |
| 2026-05-06 18:43 | 50.31373 | 1.64183 | 37959 ft | 442 kts | 314° |
| 2026-05-06 18:43 | 50.35778 | 1.57430 | 37962 ft | 442 kts | 314° |
| 2026-05-06 18:44 | 50.40139 | 1.50725 | 37971 ft | 441 kts | 314° |
| 2026-05-06 18:44 | 50.44506 | 1.43994 | 37683 ft | 436 kts | 314° |
| 2026-05-06 18:44 | 50.46665 | 1.40659 | 37197 ft | 432 kts | 314° |
| 2026-05-06 18:45 | 50.48772 | 1.37399 | 36707 ft | 427 kts | 314° |
| 2026-05-06 18:45 | 50.50190 | 1.35188 | 36346 ft | 424 kts | 313° |
| 2026-05-06 18:45 | 50.52204 | 1.31839 | 35836 ft | 418 kts | 312° |
| 2026-05-06 18:45 | 50.54154 | 1.28476 | 35351 ft | 413 kts | 311° |
| 2026-05-06 18:46 | 50.56074 | 1.25153 | 34863 ft | 409 kts | 312° |
| 2026-05-06 18:46 | 50.57978 | 1.21872 | 34396 ft | 404 kts | 312° |
| 2026-05-06 18:46 | 50.59914 | 1.18704 | 33812 ft | 398 kts | 314° |
| 2026-05-06 18:46 | 50.61844 | 1.15682 | 32955 ft | 393 kts | 315° |
| 2026-05-06 18:47 | 50.64430 | 1.11667 | 31851 ft | 387 kts | 314° |
| 2026-05-06 18:47 | 50.65694 | 1.09692 | 31332 ft | 384 kts | 314° |
| 2026-05-06 18:47 | 50.67572 | 1.06740 | 30570 ft | 379 kts | 314° |
| 2026-05-06 18:47 | 50.70047 | 1.02826 | 29495 ft | 373 kts | 314° |
| 2026-05-06 18:48 | 50.71845 | 0.99972 | 28669 ft | 368 kts | 314° |
| 2026-05-06 18:48 | 50.73646 | 0.97109 | 27863 ft | 363 kts | 314° |
| 2026-05-06 18:48 | 50.75419 | 0.94285 | 27076 ft | 359 kts | 314° |
| 2026-05-06 18:48 | 50.77170 | 0.91494 | 26313 ft | 355 kts | 313° |
| 2026-05-06 18:49 | 50.78882 | 0.88765 | 25580 ft | 351 kts | 313° |
| 2026-05-06 18:49 | 50.80593 | 0.86032 | 24861 ft | 347 kts | 313° |
| 2026-05-06 18:49 | 50.82283 | 0.83332 | 24165 ft | 343 kts | 313° |
| 2026-05-06 18:49 | 50.83954 | 0.80658 | 23469 ft | 340 kts | 313° |
| 2026-05-06 18:50 | 50.85608 | 0.78009 | 22692 ft | 336 kts | 313° |
| 2026-05-06 18:50 | 50.87224 | 0.75418 | 21958 ft | 332 kts | 313° |
| 2026-05-06 18:50 | 50.88840 | 0.72824 | 21252 ft | 328 kts | 313° |
| 2026-05-06 18:50 | 50.90430 | 0.70269 | 20549 ft | 324 kts | 313° |
| 2026-05-06 18:51 | 50.92002 | 0.67739 | 19875 ft | 320 kts | 313° |
| 2026-05-06 18:51 | 50.93561 | 0.65229 | 19204 ft | 317 kts | 313° |
| 2026-05-06 18:51 | 50.95091 | 0.62762 | 18569 ft | 314 kts | 313° |
| 2026-05-06 18:51 | 50.96612 | 0.60307 | 17879 ft | 311 kts | 313° |
| 2026-05-06 18:52 | 50.98117 | 0.57876 | 17157 ft | 307 kts | 314° |
| 2026-05-06 18:52 | 50.99609 | 0.55464 | 16463 ft | 304 kts | 314° |
| 2026-05-06 18:52 | 51.01083 | 0.53077 | 15794 ft | 301 kts | 314° |
| 2026-05-06 18:52 | 51.02540 | 0.50719 | 15222 ft | 295 kts | 314° |
| 2026-05-06 18:53 | 51.03962 | 0.48414 | 14634 ft | 295 kts | 314° |
| 2026-05-06 18:53 | 51.05391 | 0.46092 | 14028 ft | 292 kts | 314° |
| 2026-05-06 18:53 | 51.06811 | 0.43787 | 13374 ft | 289 kts | 314° |
| 2026-05-06 18:53 | 51.07754 | 0.42284 | 12933 ft | 287 kts | 315° |
| 2026-05-06 18:54 | 51.09191 | 0.40088 | 12269 ft | 284 kts | 316° |
| 2026-05-06 18:54 | 51.11082 | 0.37246 | 11403 ft | 281 kts | 316° |
| 2026-05-06 18:54 | 51.12488 | 0.35124 | 10753 ft | 278 kts | 316° |
| 2026-05-06 18:54 | 51.13885 | 0.33003 | 10133 ft | 275 kts | 316° |
| 2026-05-06 18:55 | 51.15260 | 0.30906 | 9476 ft | 273 kts | 316° |
| 2026-05-06 18:55 | 51.16166 | 0.29522 | 9042 ft | 271 kts | 316° |
| 2026-05-06 18:55 | 51.17522 | 0.27446 | 8400 ft | 268 kts | 316° |
| 2026-05-06 18:55 | 51.18846 | 0.25418 | 8071 ft | 262 kts | 316° |
| 2026-05-06 18:56 | 51.20190 | 0.23356 | 7977 ft | 270 kts | 316° |
| 2026-05-06 18:56 | 51.21523 | 0.21310 | 7973 ft | 271 kts | 316° |
| 2026-05-06 18:56 | 51.22890 | 0.19212 | 7991 ft | 269 kts | 316° |
| 2026-05-06 18:56 | 51.24241 | 0.17135 | 7995 ft | 269 kts | 316° |
| 2026-05-06 18:57 | 51.25591 | 0.15059 | 7993 ft | 269 kts | 316° |
| 2026-05-06 18:57 | 51.26940 | 0.12979 | 7992 ft | 270 kts | 316° |
| 2026-05-06 18:57 | 51.28295 | 0.10890 | 7993 ft | 269 kts | 316° |
| 2026-05-06 18:57 | 51.29626 | 0.08836 | 7991 ft | 270 kts | 316° |
| 2026-05-06 18:58 | 51.30981 | 0.06742 | 7993 ft | 270 kts | 316° |
| 2026-05-06 18:58 | 51.32288 | 0.04596 | 7991 ft | 270 kts | 307° |
| 2026-05-06 18:58 | 51.33120 | 0.01919 | 7995 ft | 270 kts | 285° |
| 2026-05-06 18:58 | 51.33308 | -0.00053 | 7992 ft | 271 kts | 275° |
| 2026-05-06 18:59 | 51.33518 | -0.04068 | 7992 ft | 271 kts | 276° |
| 2026-05-06 18:59 | 51.33692 | -0.07078 | 7989 ft | 271 kts | 276° |
| 2026-05-06 18:59 | 51.33862 | -0.10067 | 7864 ft | 268 kts | 276° |
| 2026-05-06 18:59 | 51.33974 | -0.12029 | 7618 ft | 268 kts | 276° |
| 2026-05-06 19:00 | 51.34198 | -0.15953 | 7142 ft | 265 kts | 276° |
| 2026-05-06 19:00 | 51.34367 | -0.18903 | 7017 ft | 269 kts | 276° |
| 2026-05-06 19:00 | 51.34535 | -0.21882 | 6994 ft | 267 kts | 276° |
| 2026-05-06 19:00 | 51.34700 | -0.24851 | 6995 ft | 267 kts | 276° |
| 2026-05-06 19:01 | 51.34808 | -0.26825 | 7015 ft | 267 kts | 276° |
| 2026-05-06 19:01 | 51.35020 | -0.30743 | 7018 ft | 267 kts | 276° |
| 2026-05-06 19:01 | 51.35174 | -0.33699 | 7018 ft | 266 kts | 276° |
| 2026-05-06 19:01 | 51.35326 | -0.36658 | 7015 ft | 266 kts | 276° |
| 2026-05-06 19:02 | 51.35475 | -0.39615 | 7015 ft | 266 kts | 276° |
| 2026-05-06 19:02 | 51.35620 | -0.42569 | 7012 ft | 266 kts | 276° |
| 2026-05-06 19:02 | 51.35763 | -0.45513 | 7019 ft | 266 kts | 276° |
| 2026-05-06 19:02 | 51.35905 | -0.48469 | 7014 ft | 266 kts | 276° |
| 2026-05-06 19:03 | 51.36042 | -0.51387 | 7018 ft | 265 kts | 276° |
| 2026-05-06 19:03 | 51.36178 | -0.54334 | 7017 ft | 266 kts | 276° |
| 2026-05-06 19:03 | 51.36312 | -0.57284 | 7014 ft | 266 kts | 276° |
| 2026-05-06 19:03 | 51.36446 | -0.60244 | 6999 ft | 266 kts | 276° |
| 2026-05-06 19:04 | 51.36583 | -0.63204 | 6996 ft | 266 kts | 276° |
| 2026-05-06 19:04 | 51.36716 | -0.66164 | 6991 ft | 265 kts | 276° |
| 2026-05-06 19:04 | 51.36848 | -0.69077 | 6981 ft | 265 kts | 276° |
| 2026-05-06 19:04 | 51.36977 | -0.72005 | 6596 ft | 262 kts | 276° |
| 2026-05-06 19:05 | 51.37105 | -0.74905 | 5997 ft | 261 kts | 276° |
| 2026-05-06 19:05 | 51.37232 | -0.77793 | 5368 ft | 259 kts | 276° |
| 2026-05-06 19:05 | 51.37353 | -0.80612 | 5050 ft | 246 kts | 275° |
| 2026-05-06 19:05 | 51.37460 | -0.83237 | 4972 ft | 225 kts | 276° |
| 2026-05-06 19:06 | 51.37554 | -0.85617 | 4965 ft | 204 kts | 276° |
| 2026-05-06 19:06 | 51.37630 | -0.87782 | 4968 ft | 189 kts | 276° |
| 2026-05-06 19:06 | 51.37706 | -0.89902 | 5001 ft | 182 kts | 275° |
| 2026-05-06 19:06 | 51.37775 | -0.91858 | 4976 ft | 178 kts | 276° |
| 2026-05-06 19:07 | 51.37916 | -0.93821 | 4968 ft | 176 kts | 292° |
| 2026-05-06 19:07 | 51.38681 | -0.95263 | 4982 ft | 172 kts | 333° |
| 2026-05-06 19:07 | 51.39853 | -0.95580 | 4978 ft | 174 kts | 0° |
| 2026-05-06 19:07 | 51.41066 | -0.95542 | 4975 ft | 173 kts | 1° |
| 2026-05-06 19:08 | 51.42265 | -0.95505 | 4975 ft | 172 kts | 1° |
| 2026-05-06 19:08 | 51.43455 | -0.95468 | 4970 ft | 172 kts | 1° |
| 2026-05-06 19:08 | 51.44655 | -0.95339 | 4990 ft | 172 kts | 12° |
| 2026-05-06 19:08 | 51.45665 | -0.94320 | 4991 ft | 177 kts | 49° |
| 2026-05-06 19:09 | 51.46165 | -0.92507 | 4993 ft | 181 kts | 75° |
| 2026-05-06 19:09 | 51.46416 | -0.90557 | 5042 ft | 180 kts | 72° |
| 2026-05-06 19:09 | 51.46782 | -0.88622 | 5052 ft | 181 kts | 70° |
| 2026-05-06 19:09 | 51.47149 | -0.86693 | 4972 ft | 180 kts | 71° |
| 2026-05-06 19:10 | 51.47446 | -0.84728 | 4821 ft | 181 kts | 78° |
| 2026-05-06 19:10 | 51.47568 | -0.82738 | 4552 ft | 177 kts | 85° |
| 2026-05-06 19:10 | 51.47588 | -0.80791 | 4119 ft | 177 kts | 88° |
| 2026-05-06 19:10 | 51.47590 | -0.78834 | 3775 ft | 173 kts | 87° |
| 2026-05-06 19:11 | 51.47599 | -0.76860 | 3599 ft | 177 kts | 86° |
| 2026-05-06 19:11 | 51.47604 | -0.74949 | 3385 ft | 165 kts | 86° |
| 2026-05-06 19:11 | 51.47612 | -0.73108 | 3170 ft | 166 kts | 86° |
| 2026-05-06 19:11 | 51.47619 | -0.71286 | 2965 ft | 162 kts | 86° |
| 2026-05-06 19:12 | 51.47627 | -0.69467 | 2742 ft | 162 kts | 86° |
| 2026-05-06 19:12 | 51.47635 | -0.67648 | 2517 ft | 163 kts | 86° |
| 2026-05-06 19:12 | 51.47643 | -0.65826 | 2291 ft | 161 kts | 86° |
| 2026-05-06 19:12 | 51.47651 | -0.64055 | 2074 ft | 161 kts | 86° |
| 2026-05-06 19:13 | 51.47660 | -0.62238 | 1856 ft | 162 kts | 86° |
| 2026-05-06 19:13 | 51.47668 | -0.60448 | 1629 ft | 159 kts | 86° |
| 2026-05-06 19:13 | 51.47678 | -0.58659 | 1404 ft | 159 kts | 86° |
| 2026-05-06 19:13 | 51.47687 | -0.56861 | 1187 ft | 162 kts | 86° |
| 2026-05-06 19:14 | 51.47696 | -0.55088 | 955 ft | 159 kts | 86° |
| 2026-05-06 19:14 | 51.47705 | -0.53316 | 719 ft | 156 kts | 86° |
| 2026-05-06 19:14 | 51.47712 | -0.52148 | 581 ft | 159 kts | 86° |
| 2026-05-06 19:14 | 51.47725 | -0.49842 | 296 ft | 154 kts | 86° |
| 2026-05-06 19:15 | 51.47734 | -0.48218 | 103 ft | 138 kts | 87° |
| 2026-05-06 19:15 | 51.47757 | -0.46884 | 94 ft | 101 kts | 90° |
| 2026-05-06 19:15 | 51.47752 | -0.46247 | 89 ft | 18 kts | 108° |
| 2026-05-06 19:15 | 51.47676 | -0.46120 | 88 ft | 20 kts | 143° |
| 2026-05-06 19:16 | 51.47650 | -0.46089 | 86 ft | 0 kts | 144° |
| 2026-05-06 19:16 | 51.47642 | -0.46081 | 86 ft | 6 kts | 145° |
| 2026-05-06 19:16 | 51.47563 | -0.46074 | 89 ft | 17 kts | 188° |
| 2026-05-06 19:17 | 51.47515 | -0.46018 | 86 ft | 7 kts | 94° |
| 2026-05-06 19:17 | 51.47515 | -0.45901 | 85 ft | 16 kts | 88° |
| 2026-05-06 19:17 | 51.47510 | -0.45665 | 88 ft | 25 kts | 94° |
| 2026-05-06 19:17 | 51.47507 | -0.45364 | 88 ft | 29 kts | 89° |
| 2026-05-06 19:18 | 51.47509 | -0.45078 | 87 ft | 8 kts | 89° |
| 2026-05-06 19:18 | 51.47509 | -0.44961 | 87 ft | 13 kts | 90° |
| 2026-05-06 19:18 | 51.47508 | -0.44779 | 87 ft | 19 kts | 90° |
| 2026-05-06 19:18 | 51.47476 | -0.44572 | 88 ft | 21 kts | 151° |
| 2026-05-06 19:19 | 51.47313 | -0.44559 | 85 ft | 22 kts | 178° |
| 2026-05-06 19:19 | 51.47279 | -0.44556 | 85 ft | 10 kts | 177° |
| 2026-05-06 19:19 | 51.47206 | -0.44553 | 88 ft | 9 kts | 179° |
| 2026-05-06 19:19 | 51.47200 | -0.44553 | 87 ft | 0 kts | 179° |
| 2026-05-06 19:20 | 51.47018 | -0.44550 | 85 ft | 10 kts | 180° |
| 2026-05-06 19:20 | 51.46918 | -0.44551 | 85 ft | 19 kts | 180° |
| 2026-05-06 19:20 | 51.46826 | -0.44586 | 87 ft | 9 kts | 239° |
| 2026-05-06 19:20 | 51.46822 | -0.44668 | 88 ft | 7 kts | 266° |
| 2026-05-06 19:21 | 51.46821 | -0.44672 | 88 ft | 0 kts | 266° |